Terminal Aerodrome Forecast
Issued by NWS Billings, MT

Home | Current Version | Previous Version | Graphics & Text | Print | Product List | Glossary On
Versions: 1 2 3 4 5 6 7 8 9 10 11 12 13 14 15 16 17 18 19 20 21 22 23 24
405
FTUS45 KBYZ 171732
TAFMLS
TAF
KMLS 171732Z 1718/1818 28018KT P6SM FEW080
     FM172000 25012KT P6SM FEW090
     FM180000 VRB06KT P6SM FEW200
     FM180900 12005KT P6SM SCT120=

USA.gov is the U.S. government's official web portal to all federal, state and local government web resources and services.